sensor_id;sensor_type;location;lat;lon;timestamp;P1;durP1;ratioP1;P2;durP2;ratioP2
71558;SDS011;59382;43.852;25.952;2023-12-14T00:01:34;28.92;;;15.18;;
71558;SDS011;59382;43.852;25.952;2023-12-14T00:04:00;32.60;;;16.08;;
71558;SDS011;59382;43.852;25.952;2023-12-14T00:06:25;33.97;;;15.80;;
71558;SDS011;59382;43.852;25.952;2023-12-14T00:08:51;31.05;;;14.85;;
71558;SDS011;59382;43.852;25.952;2023-12-14T00:11:16;29.63;;;15.13;;
71558;SDS011;59382;43.852;25.952;2023-12-14T00:13:44;34.72;;;16.00;;
71558;SDS011;59382;43.852;25.952;2023-12-14T00:16:10;28.17;;;14.20;;
71558;SDS011;59382;43.852;25.952;2023-12-14T00:18:36;32.22;;;13.80;;
71558;SDS011;59382;43.852;25.952;2023-12-14T00:21:02;30.30;;;15.20;;
71558;SDS011;59382;43.852;25.952;2023-12-14T00:23:28;28.58;;;12.75;;
71558;SDS011;59382;43.852;25.952;2023-12-14T00:25:54;26.73;;;14.68;;
71558;SDS011;59382;43.852;25.952;2023-12-14T00:28:19;25.20;;;13.05;;
71558;SDS011;59382;43.852;25.952;2023-12-14T00:30:45;27.73;;;13.68;;
71558;SDS011;59382;43.852;25.952;2023-12-14T00:33:10;31.35;;;14.88;;
71558;SDS011;59382;43.852;25.952;2023-12-14T00:35:36;22.60;;;11.90;;
71558;SDS011;59382;43.852;25.952;2023-12-14T00:38:01;25.83;;;13.23;;
71558;SDS011;59382;43.852;25.952;2023-12-14T00:40:27;26.95;;;12.07;;
71558;SDS011;59382;43.852;25.952;2023-12-14T00:42:52;27.33;;;14.15;;
71558;SDS011;59382;43.852;25.952;2023-12-14T00:45:18;21.52;;;10.73;;
71558;SDS011;59382;43.852;25.952;2023-12-14T00:47:43;26.38;;;13.88;;
71558;SDS011;59382;43.852;25.952;2023-12-14T00:50:09;22.02;;;11.63;;
71558;SDS011;59382;43.852;25.952;2023-12-14T00:52:34;27.30;;;12.77;;
71558;SDS011;59382;43.852;25.952;2023-12-14T00:55:00;28.50;;;12.38;;
71558;SDS011;59382;43.852;25.952;2023-12-14T00:57:25;32.00;;;13.15;;
71558;SDS011;59382;43.852;25.952;2023-12-14T00:59:51;25.40;;;13.27;;
71558;SDS011;59382;43.852;25.952;2023-12-14T01:02:16;26.98;;;13.10;;
71558;SDS011;59382;43.852;25.952;2023-12-14T01:04:42;23.23;;;11.45;;
71558;SDS011;59382;43.852;25.952;2023-12-14T01:07:07;19.92;;;10.30;;
71558;SDS011;59382;43.852;25.952;2023-12-14T01:09:35;28.02;;;12.27;;
71558;SDS011;59382;43.852;25.952;2023-12-14T01:12:01;29.85;;;12.93;;
71558;SDS011;59382;43.852;25.952;2023-12-14T01:14:26;21.67;;;12.73;;
71558;SDS011;59382;43.852;25.952;2023-12-14T01:16:55;30.10;;;13.93;;
71558;SDS011;59382;43.852;25.952;2023-12-14T01:19:20;27.88;;;13.65;;
71558;SDS011;59382;43.852;25.952;2023-12-14T01:21:46;25.02;;;12.88;;
71558;SDS011;59382;43.852;25.952;2023-12-14T01:24:11;25.35;;;12.00;;
71558;SDS011;59382;43.852;25.952;2023-12-14T01:26:37;25.23;;;12.90;;
71558;SDS011;59382;43.852;25.952;2023-12-14T01:29:02;29.95;;;12.77;;
71558;SDS011;59382;43.852;25.952;2023-12-14T01:31:28;23.65;;;11.25;;
71558;SDS011;59382;43.852;25.952;2023-12-14T01:33:54;24.58;;;12.57;;
71558;SDS011;59382;43.852;25.952;2023-12-14T01:36:23;23.10;;;12.15;;
71558;SDS011;59382;43.852;25.952;2023-12-14T01:38:49;25.83;;;12.07;;
71558;SDS011;59382;43.852;25.952;2023-12-14T01:41:15;24.23;;;11.98;;
71558;SDS011;59382;43.852;25.952;2023-12-14T01:43:42;28.13;;;13.45;;
71558;SDS011;59382;43.852;25.952;2023-12-14T01:46:08;20.10;;;10.35;;
71558;SDS011;59382;43.852;25.952;2023-12-14T01:48:33;21.10;;;10.38;;
71558;SDS011;59382;43.852;25.952;2023-12-14T01:50:59;20.90;;;11.00;;
71558;SDS011;59382;43.852;25.952;2023-12-14T01:53:24;22.98;;;12.43;;
71558;SDS011;59382;43.852;25.952;2023-12-14T01:55:52;25.42;;;12.68;;
71558;SDS011;59382;43.852;25.952;2023-12-14T01:58:18;27.00;;;12.00;;
71558;SDS011;59382;43.852;25.952;2023-12-14T02:00:46;23.38;;;11.80;;
71558;SDS011;59382;43.852;25.952;2023-12-14T02:03:13;18.13;;;9.82;;
71558;SDS011;59382;43.852;25.952;2023-12-14T02:05:38;19.38;;;11.43;;
71558;SDS011;59382;43.852;25.952;2023-12-14T02:08:04;22.40;;;12.75;;
71558;SDS011;59382;43.852;25.952;2023-12-14T02:10:29;24.05;;;13.63;;
71558;SDS011;59382;43.852;25.952;2023-12-14T02:12:55;24.13;;;13.07;;
71558;SDS011;59382;43.852;25.952;2023-12-14T02:15:20;24.52;;;12.50;;
71558;SDS011;59382;43.852;25.952;2023-12-14T02:17:46;22.98;;;12.63;;
71558;SDS011;59382;43.852;25.952;2023-12-14T02:20:11;18.67;;;11.10;;
71558;SDS011;59382;43.852;25.952;2023-12-14T02:22:55;21.83;;;12.40;;
71558;SDS011;59382;43.852;25.952;2023-12-14T02:25:22;21.05;;;10.43;;
71558;SDS011;59382;43.852;25.952;2023-12-14T02:27:48;19.30;;;10.48;;
71558;SDS011;59382;43.852;25.952;2023-12-14T02:30:15;21.48;;;11.68;;
71558;SDS011;59382;43.852;25.952;2023-12-14T02:32:41;17.33;;;13.05;;
71558;SDS011;59382;43.852;25.952;2023-12-14T02:35:07;21.95;;;11.38;;
71558;SDS011;59382;43.852;25.952;2023-12-14T02:37:36;21.77;;;11.68;;
71558;SDS011;59382;43.852;25.952;2023-12-14T02:40:07;19.60;;;11.48;;
71558;SDS011;59382;43.852;25.952;2023-12-14T02:42:39;21.77;;;10.82;;
71558;SDS011;59382;43.852;25.952;2023-12-14T02:45:05;17.42;;;10.82;;
71558;SDS011;59382;43.852;25.952;2023-12-14T02:47:32;19.65;;;10.75;;
71558;SDS011;59382;43.852;25.952;2023-12-14T02:49:57;16.13;;;10.30;;
71558;SDS011;59382;43.852;25.952;2023-12-14T02:52:22;19.20;;;11.65;;
71558;SDS011;59382;43.852;25.952;2023-12-14T02:54:48;19.38;;;11.38;;
71558;SDS011;59382;43.852;25.952;2023-12-14T02:57:13;18.52;;;10.95;;
71558;SDS011;59382;43.852;25.952;2023-12-14T02:59:39;22.60;;;10.75;;
71558;SDS011;59382;43.852;25.952;2023-12-14T03:02:08;20.45;;;10.77;;
71558;SDS011;59382;43.852;25.952;2023-12-14T03:04:34;25.60;;;11.65;;
71558;SDS011;59382;43.852;25.952;2023-12-14T03:07:00;21.45;;;12.65;;
71558;SDS011;59382;43.852;25.952;2023-12-14T03:09:30;21.20;;;10.98;;
71558;SDS011;59382;43.852;25.952;2023-12-14T03:11:55;15.38;;;10.43;;
71558;SDS011;59382;43.852;25.952;2023-12-14T03:14:21;18.90;;;11.75;;
71558;SDS011;59382;43.852;25.952;2023-12-14T03:16:47;22.90;;;13.50;;
71558;SDS011;59382;43.852;25.952;2023-12-14T03:19:14;26.35;;;14.70;;
71558;SDS011;59382;43.852;25.952;2023-12-14T03:21:42;23.98;;;13.55;;
71558;SDS011;59382;43.852;25.952;2023-12-14T03:24:08;28.38;;;13.63;;
71558;SDS011;59382;43.852;25.952;2023-12-14T03:26:34;24.63;;;12.68;;
71558;SDS011;59382;43.852;25.952;2023-12-14T03:29:00;20.63;;;12.60;;
71558;SDS011;59382;43.852;25.952;2023-12-14T03:31:28;22.83;;;13.10;;
71558;SDS011;59382;43.852;25.952;2023-12-14T03:33:54;21.33;;;12.18;;
71558;SDS011;59382;43.852;25.952;2023-12-14T03:36:19;22.80;;;13.50;;
71558;SDS011;59382;43.852;25.952;2023-12-14T03:38:47;19.85;;;12.40;;
71558;SDS011;59382;43.852;25.952;2023-12-14T03:41:13;23.08;;;13.18;;
71558;SDS011;59382;43.852;25.952;2023-12-14T03:43:38;18.05;;;10.77;;
71558;SDS011;59382;43.852;25.952;2023-12-14T03:46:04;17.27;;;11.57;;
71558;SDS011;59382;43.852;25.952;2023-12-14T03:48:31;21.02;;;11.98;;
71558;SDS011;59382;43.852;25.952;2023-12-14T03:50:57;22.85;;;12.30;;
71558;SDS011;59382;43.852;25.952;2023-12-14T03:53:22;22.85;;;11.73;;
71558;SDS011;59382;43.852;25.952;2023-12-14T03:55:48;23.27;;;13.88;;
71558;SDS011;59382;43.852;25.952;2023-12-14T03:58:16;16.60;;;10.38;;
71558;SDS011;59382;43.852;25.952;2023-12-14T04:00:41;19.52;;;11.38;;
71558;SDS011;59382;43.852;25.952;2023-12-14T04:03:09;18.17;;;10.82;;
71558;SDS011;59382;43.852;25.952;2023-12-14T04:05:35;24.83;;;12.48;;
71558;SDS011;59382;43.852;25.952;2023-12-14T04:08:00;19.35;;;12.25;;
71558;SDS011;59382;43.852;25.952;2023-12-14T04:10:30;24.10;;;13.40;;
71558;SDS011;59382;43.852;25.952;2023-12-14T04:12:55;24.88;;;13.18;;
71558;SDS011;59382;43.852;25.952;2023-12-14T04:15:21;24.25;;;12.18;;
71558;SDS011;59382;43.852;25.952;2023-12-14T04:17:47;26.50;;;13.70;;
71558;SDS011;59382;43.852;25.952;2023-12-14T04:20:13;23.80;;;14.10;;
71558;SDS011;59382;43.852;25.952;2023-12-14T04:22:41;30.67;;;14.00;;
71558;SDS011;59382;43.852;25.952;2023-12-14T04:25:08;30.42;;;13.80;;
71558;SDS011;59382;43.852;25.952;2023-12-14T04:27:34;27.65;;;14.25;;
71558;SDS011;59382;43.852;25.952;2023-12-14T04:29:59;24.88;;;13.35;;
71558;SDS011;59382;43.852;25.952;2023-12-14T04:32:25;24.20;;;13.95;;
71558;SDS011;59382;43.852;25.952;2023-12-14T04:34:50;27.77;;;15.05;;
71558;SDS011;59382;43.852;25.952;2023-12-14T04:37:16;27.17;;;13.52;;
71558;SDS011;59382;43.852;25.952;2023-12-14T04:39:42;30.35;;;13.57;;
71558;SDS011;59382;43.852;25.952;2023-12-14T04:42:10;24.17;;;12.80;;
71558;SDS011;59382;43.852;25.952;2023-12-14T04:44:35;27.13;;;13.55;;
71558;SDS011;59382;43.852;25.952;2023-12-14T04:47:01;24.60;;;14.02;;
71558;SDS011;59382;43.852;25.952;2023-12-14T04:49:27;22.90;;;14.15;;
71558;SDS011;59382;43.852;25.952;2023-12-14T04:51:55;24.75;;;12.85;;
71558;SDS011;59382;43.852;25.952;2023-12-14T04:54:21;25.40;;;13.65;;
71558;SDS011;59382;43.852;25.952;2023-12-14T04:56:46;31.55;;;14.35;;
71558;SDS011;59382;43.852;25.952;2023-12-14T04:59:12;27.45;;;13.57;;
71558;SDS011;59382;43.852;25.952;2023-12-14T05:01:40;28.60;;;12.85;;
71558;SDS011;59382;43.852;25.952;2023-12-14T05:04:05;25.10;;;14.50;;
71558;SDS011;59382;43.852;25.952;2023-12-14T05:06:31;23.77;;;12.98;;
71558;SDS011;59382;43.852;25.952;2023-12-14T05:08:58;28.58;;;14.73;;
71558;SDS011;59382;43.852;25.952;2023-12-14T05:11:26;20.52;;;12.52;;
71558;SDS011;59382;43.852;25.952;2023-12-14T05:13:52;25.10;;;13.20;;
71558;SDS011;59382;43.852;25.952;2023-12-14T05:16:17;23.70;;;14.00;;
71558;SDS011;59382;43.852;25.952;2023-12-14T05:18:43;27.75;;;15.07;;
71558;SDS011;59382;43.852;25.952;2023-12-14T05:21:08;26.60;;;14.07;;
71558;SDS011;59382;43.852;25.952;2023-12-14T05:23:34;25.00;;;14.50;;
71558;SDS011;59382;43.852;25.952;2023-12-14T05:25:59;23.50;;;12.98;;
71558;SDS011;59382;43.852;25.952;2023-12-14T05:28:25;28.73;;;13.85;;
71558;SDS011;59382;43.852;25.952;2023-12-14T05:30:50;25.02;;;13.38;;
71558;SDS011;59382;43.852;25.952;2023-12-14T05:33:16;25.48;;;14.43;;
71558;SDS011;59382;43.852;25.952;2023-12-14T05:35:41;29.15;;;14.88;;
71558;SDS011;59382;43.852;25.952;2023-12-14T05:38:07;28.65;;;15.80;;
71558;SDS011;59382;43.852;25.952;2023-12-14T05:40:32;25.45;;;13.82;;
71558;SDS011;59382;43.852;25.952;2023-12-14T05:42:58;28.30;;;16.38;;
71558;SDS011;59382;43.852;25.952;2023-12-14T05:45:23;29.02;;;16.83;;
71558;SDS011;59382;43.852;25.952;2023-12-14T05:47:49;24.48;;;13.52;;
71558;SDS011;59382;43.852;25.952;2023-12-14T05:50:15;31.77;;;16.50;;
71558;SDS011;59382;43.852;25.952;2023-12-14T05:52:40;32.78;;;19.13;;
71558;SDS011;59382;43.852;25.952;2023-12-14T05:55:09;34.72;;;20.40;;
71558;SDS011;59382;43.852;25.952;2023-12-14T05:57:38;36.97;;;20.92;;
71558;SDS011;59382;43.852;25.952;2023-12-14T06:00:04;35.03;;;18.00;;
71558;SDS011;59382;43.852;25.952;2023-12-14T06:02:32;36.10;;;18.75;;
71558;SDS011;59382;43.852;25.952;2023-12-14T06:04:58;33.97;;;17.60;;
71558;SDS011;59382;43.852;25.952;2023-12-14T06:07:24;31.83;;;17.65;;
71558;SDS011;59382;43.852;25.952;2023-12-14T06:09:50;28.77;;;15.50;;
71558;SDS011;59382;43.852;25.952;2023-12-14T06:12:15;20.60;;;11.82;;
71558;SDS011;59382;43.852;25.952;2023-12-14T06:14:41;25.83;;;14.00;;
71558;SDS011;59382;43.852;25.952;2023-12-14T06:17:09;19.40;;;12.40;;
71558;SDS011;59382;43.852;25.952;2023-12-14T06:19:34;21.52;;;11.55;;
71558;SDS011;59382;43.852;25.952;2023-12-14T06:22:00;21.60;;;12.38;;
71558;SDS011;59382;43.852;25.952;2023-12-14T06:24:25;20.17;;;11.88;;
71558;SDS011;59382;43.852;25.952;2023-12-14T06:26:52;21.90;;;11.27;;
71558;SDS011;59382;43.852;25.952;2023-12-14T06:29:18;21.15;;;12.40;;
71558;SDS011;59382;43.852;25.952;2023-12-14T06:31:44;22.13;;;11.32;;
71558;SDS011;59382;43.852;25.952;2023-12-14T06:34:10;21.15;;;11.95;;
71558;SDS011;59382;43.852;25.952;2023-12-14T06:36:36;23.65;;;12.88;;
71558;SDS011;59382;43.852;25.952;2023-12-14T06:39:06;54.70;;;16.33;;
71558;SDS011;59382;43.852;25.952;2023-12-14T06:41:34;34.25;;;13.43;;
71558;SDS011;59382;43.852;25.952;2023-12-14T06:44:00;22.00;;;10.95;;
71558;SDS011;59382;43.852;25.952;2023-12-14T06:46:26;21.02;;;11.90;;
71558;SDS011;59382;43.852;25.952;2023-12-14T06:48:51;24.10;;;11.98;;
71558;SDS011;59382;43.852;25.952;2023-12-14T06:51:17;20.73;;;11.55;;
71558;SDS011;59382;43.852;25.952;2023-12-14T06:53:43;21.42;;;11.05;;
71558;SDS011;59382;43.852;25.952;2023-12-14T06:56:09;23.15;;;12.25;;
71558;SDS011;59382;43.852;25.952;2023-12-14T06:58:42;29.40;;;15.13;;
71558;SDS011;59382;43.852;25.952;2023-12-14T07:01:17;31.33;;;15.60;;
71558;SDS011;59382;43.852;25.952;2023-12-14T07:03:43;36.10;;;15.65;;
71558;SDS011;59382;43.852;25.952;2023-12-14T07:06:12;31.13;;;17.45;;
71558;SDS011;59382;43.852;25.952;2023-12-14T07:08:39;18.40;;;10.00;;
71558;SDS011;59382;43.852;25.952;2023-12-14T07:11:06;19.00;;;9.27;;
71558;SDS011;59382;43.852;25.952;2023-12-14T07:13:32;25.70;;;12.85;;
71558;SDS011;59382;43.852;25.952;2023-12-14T07:15:57;32.17;;;16.55;;
71558;SDS011;59382;43.852;25.952;2023-12-14T07:18:24;25.13;;;14.43;;
71558;SDS011;59382;43.852;25.952;2023-12-14T07:20:49;27.65;;;12.27;;
71558;SDS011;59382;43.852;25.952;2023-12-14T07:23:15;19.77;;;10.27;;
71558;SDS011;59382;43.852;25.952;2023-12-14T07:25:40;19.10;;;10.55;;
71558;SDS011;59382;43.852;25.952;2023-12-14T07:28:06;21.88;;;12.98;;
71558;SDS011;59382;43.852;25.952;2023-12-14T07:30:31;17.58;;;10.50;;
71558;SDS011;59382;43.852;25.952;2023-12-14T07:32:57;18.60;;;11.23;;
71558;SDS011;59382;43.852;25.952;2023-12-14T07:35:23;18.55;;;10.32;;
71558;SDS011;59382;43.852;25.952;2023-12-14T07:37:48;19.15;;;11.25;;
71558;SDS011;59382;43.852;25.952;2023-12-14T07:40:14;19.58;;;11.02;;
71558;SDS011;59382;43.852;25.952;2023-12-14T07:42:41;20.95;;;11.18;;
71558;SDS011;59382;43.852;25.952;2023-12-14T07:45:08;20.63;;;11.30;;
71558;SDS011;59382;43.852;25.952;2023-12-14T07:47:34;22.00;;;11.10;;
71558;SDS011;59382;43.852;25.952;2023-12-14T07:50:00;22.88;;;11.50;;
71558;SDS011;59382;43.852;25.952;2023-12-14T07:52:25;19.15;;;12.05;;
71558;SDS011;59382;43.852;25.952;2023-12-14T07:54:51;20.77;;;12.68;;
71558;SDS011;59382;43.852;25.952;2023-12-14T07:57:16;24.70;;;12.05;;
71558;SDS011;59382;43.852;25.952;2023-12-14T07:59:42;20.38;;;10.52;;
71558;SDS011;59382;43.852;25.952;2023-12-14T08:02:07;23.70;;;12.68;;
71558;SDS011;59382;43.852;25.952;2023-12-14T08:04:33;26.20;;;12.77;;
71558;SDS011;59382;43.852;25.952;2023-12-14T08:06:59;18.85;;;12.05;;
71558;SDS011;59382;43.852;25.952;2023-12-14T08:09:24;24.58;;;14.10;;
71558;SDS011;59382;43.852;25.952;2023-12-14T08:11:50;23.35;;;13.13;;
71558;SDS011;59382;43.852;25.952;2023-12-14T08:14:17;27.83;;;15.07;;
71558;SDS011;59382;43.852;25.952;2023-12-14T08:16:43;30.98;;;15.73;;
71558;SDS011;59382;43.852;25.952;2023-12-14T08:19:08;33.47;;;16.65;;
71558;SDS011;59382;43.852;25.952;2023-12-14T08:21:37;20.98;;;13.88;;
71558;SDS011;59382;43.852;25.952;2023-12-14T08:24:04;27.38;;;14.63;;
71558;SDS011;59382;43.852;25.952;2023-12-14T08:26:30;29.05;;;16.05;;
71558;SDS011;59382;43.852;25.952;2023-12-14T08:28:55;30.83;;;14.88;;
71558;SDS011;59382;43.852;25.952;2023-12-14T08:31:21;24.92;;;13.95;;
71558;SDS011;59382;43.852;25.952;2023-12-14T08:33:46;35.92;;;15.65;;
71558;SDS011;59382;43.852;25.952;2023-12-14T08:36:15;24.23;;;12.93;;
71558;SDS011;59382;43.852;25.952;2023-12-14T08:38:42;24.23;;;13.57;;
71558;SDS011;59382;43.852;25.952;2023-12-14T08:41:07;24.48;;;12.20;;
71558;SDS011;59382;43.852;25.952;2023-12-14T08:43:37;23.05;;;14.05;;
71558;SDS011;59382;43.852;25.952;2023-12-14T08:46:03;20.38;;;11.50;;
71558;SDS011;59382;43.852;25.952;2023-12-14T08:48:29;24.35;;;9.98;;
71558;SDS011;59382;43.852;25.952;2023-12-14T08:50:54;26.35;;;13.02;;
71558;SDS011;59382;43.852;25.952;2023-12-14T08:53:20;24.17;;;12.82;;
71558;SDS011;59382;43.852;25.952;2023-12-14T08:55:46;22.98;;;11.88;;
71558;SDS011;59382;43.852;25.952;2023-12-14T08:58:11;20.50;;;10.50;;
71558;SDS011;59382;43.852;25.952;2023-12-14T09:00:37;23.23;;;11.27;;
71558;SDS011;59382;43.852;25.952;2023-12-14T09:03:06;25.23;;;12.80;;
71558;SDS011;59382;43.852;25.952;2023-12-14T09:05:31;20.20;;;10.02;;
71558;SDS011;59382;43.852;25.952;2023-12-14T09:07:57;25.20;;;12.00;;
71558;SDS011;59382;43.852;25.952;2023-12-14T09:10:24;18.67;;;11.07;;
71558;SDS011;59382;43.852;25.952;2023-12-14T09:12:50;14.50;;;8.38;;
71558;SDS011;59382;43.852;25.952;2023-12-14T09:15:15;20.13;;;11.23;;
71558;SDS011;59382;43.852;25.952;2023-12-14T09:17:41;22.00;;;11.48;;
71558;SDS011;59382;43.852;25.952;2023-12-14T09:20:08;19.80;;;11.57;;
71558;SDS011;59382;43.852;25.952;2023-12-14T09:22:34;22.20;;;9.15;;
71558;SDS011;59382;43.852;25.952;2023-12-14T09:25:00;28.15;;;9.85;;
71558;SDS011;59382;43.852;25.952;2023-12-14T09:27:26;26.10;;;10.48;;
71558;SDS011;59382;43.852;25.952;2023-12-14T09:29:54;19.98;;;11.10;;
71558;SDS011;59382;43.852;25.952;2023-12-14T09:32:19;21.63;;;12.13;;
71558;SDS011;59382;43.852;25.952;2023-12-14T09:34:45;19.67;;;11.77;;
71558;SDS011;59382;43.852;25.952;2023-12-14T09:37:10;25.33;;;12.25;;
71558;SDS011;59382;43.852;25.952;2023-12-14T09:39:36;29.02;;;13.38;;
71558;SDS011;59382;43.852;25.952;2023-12-14T09:42:02;21.15;;;9.63;;
71558;SDS011;59382;43.852;25.952;2023-12-14T09:44:29;36.75;;;15.73;;
71558;SDS011;59382;43.852;25.952;2023-12-14T09:47:01;27.38;;;13.80;;
71558;SDS011;59382;43.852;25.952;2023-12-14T09:49:28;22.30;;;11.82;;
71558;SDS011;59382;43.852;25.952;2023-12-14T09:51:58;29.33;;;13.07;;
71558;SDS011;59382;43.852;25.952;2023-12-14T09:54:25;26.20;;;13.25;;
71558;SDS011;59382;43.852;25.952;2023-12-14T09:56:52;14.40;;;8.07;;
71558;SDS011;59382;43.852;25.952;2023-12-14T09:59:18;20.83;;;10.77;;
71558;SDS011;59382;43.852;25.952;2023-12-14T10:01:44;30.65;;;14.15;;
71558;SDS011;59382;43.852;25.952;2023-12-14T10:04:11;30.63;;;13.32;;
71558;SDS011;59382;43.852;25.952;2023-12-14T10:06:42;39.53;;;14.35;;
71558;SDS011;59382;43.852;25.952;2023-12-14T10:09:14;32.22;;;14.52;;
71558;SDS011;59382;43.852;25.952;2023-12-14T10:11:43;29.25;;;12.55;;
71558;SDS011;59382;43.852;25.952;2023-12-14T10:14:24;27.13;;;12.10;;
71558;SDS011;59382;43.852;25.952;2023-12-14T10:16:51;34.45;;;12.75;;
71558;SDS011;59382;43.852;25.952;2023-12-14T10:19:17;26.58;;;12.32;;
71558;SDS011;59382;43.852;25.952;2023-12-14T10:21:44;33.35;;;12.52;;
71558;SDS011;59382;43.852;25.952;2023-12-14T10:24:12;28.98;;;13.45;;
71558;SDS011;59382;43.852;25.952;2023-12-14T10:26:38;29.10;;;12.75;;
71558;SDS011;59382;43.852;25.952;2023-12-14T10:29:04;33.97;;;13.70;;
71558;SDS011;59382;43.852;25.952;2023-12-14T10:31:32;20.25;;;10.60;;
71558;SDS011;59382;43.852;25.952;2023-12-14T10:34:06;25.63;;;11.93;;
71558;SDS011;59382;43.852;25.952;2023-12-14T10:36:32;23.92;;;11.02;;
71558;SDS011;59382;43.852;25.952;2023-12-14T10:38:58;29.92;;;13.48;;
71558;SDS011;59382;43.852;25.952;2023-12-14T10:41:28;31.30;;;13.93;;
71558;SDS011;59382;43.852;25.952;2023-12-14T10:43:57;37.60;;;14.43;;
71558;SDS011;59382;43.852;25.952;2023-12-14T10:46:25;32.78;;;13.68;;
71558;SDS011;59382;43.852;25.952;2023-12-14T10:48:52;32.95;;;14.50;;
71558;SDS011;59382;43.852;25.952;2023-12-14T10:51:20;30.85;;;13.77;;
71558;SDS011;59382;43.852;25.952;2023-12-14T10:53:47;22.45;;;11.65;;
71558;SDS011;59382;43.852;25.952;2023-12-14T10:56:14;25.80;;;11.90;;
71558;SDS011;59382;43.852;25.952;2023-12-14T10:58:48;23.02;;;11.20;;
71558;SDS011;59382;43.852;25.952;2023-12-14T11:01:20;24.48;;;12.82;;
71558;SDS011;59382;43.852;25.952;2023-12-14T11:03:50;27.13;;;12.85;;
71558;SDS011;59382;43.852;25.952;2023-12-14T11:06:21;25.63;;;11.77;;
71558;SDS011;59382;43.852;25.952;2023-12-14T11:08:50;21.83;;;10.68;;
71558;SDS011;59382;43.852;25.952;2023-12-14T11:11:17;23.88;;;12.88;;
71558;SDS011;59382;43.852;25.952;2023-12-14T11:13:47;29.13;;;11.63;;
71558;SDS011;59382;43.852;25.952;2023-12-14T11:16:21;23.42;;;11.68;;
71558;SDS011;59382;43.852;25.952;2023-12-14T11:18:48;23.50;;;11.63;;
71558;SDS011;59382;43.852;25.952;2023-12-14T11:21:33;15.35;;;9.73;;
71558;SDS011;59382;43.852;25.952;2023-12-14T11:23:59;30.05;;;12.60;;
71558;SDS011;59382;43.852;25.952;2023-12-14T11:26:26;25.80;;;11.35;;
71558;SDS011;59382;43.852;25.952;2023-12-14T11:28:53;26.48;;;12.02;;
71558;SDS011;59382;43.852;25.952;2023-12-14T11:31:21;24.42;;;10.60;;
71558;SDS011;59382;43.852;25.952;2023-12-14T11:33:48;21.63;;;11.82;;
71558;SDS011;59382;43.852;25.952;2023-12-14T11:36:13;26.02;;;8.35;;
71558;SDS011;59382;43.852;25.952;2023-12-14T11:38:41;16.40;;;9.55;;
71558;SDS011;59382;43.852;25.952;2023-12-14T11:41:08;22.02;;;10.90;;
71558;SDS011;59382;43.852;25.952;2023-12-14T11:43:42;21.45;;;10.57;;
71558;SDS011;59382;43.852;25.952;2023-12-14T11:46:09;19.80;;;11.30;;
71558;SDS011;59382;43.852;25.952;2023-12-14T11:48:35;21.60;;;10.15;;
71558;SDS011;59382;43.852;25.952;2023-12-14T11:51:01;18.88;;;11.05;;
71558;SDS011;59382;43.852;25.952;2023-12-14T11:53:26;14.93;;;9.95;;
71558;SDS011;59382;43.852;25.952;2023-12-14T11:55:52;22.40;;;10.77;;
71558;SDS011;59382;43.852;25.952;2023-12-14T11:58:17;23.02;;;9.18;;
71558;SDS011;59382;43.852;25.952;2023-12-14T12:00:43;16.00;;;8.93;;
71558;SDS011;59382;43.852;25.952;2023-12-14T12:03:15;22.33;;;9.88;;
71558;SDS011;59382;43.852;25.952;2023-12-14T12:05:51;20.20;;;9.57;;
71558;SDS011;59382;43.852;25.952;2023-12-14T12:08:20;22.98;;;10.65;;
71558;SDS011;59382;43.852;25.952;2023-12-14T12:10:46;21.83;;;9.80;;
71558;SDS011;59382;43.852;25.952;2023-12-14T12:13:14;21.15;;;10.73;;
71558;SDS011;59382;43.852;25.952;2023-12-14T12:15:41;17.63;;;9.85;;
71558;SDS011;59382;43.852;25.952;2023-12-14T12:18:07;19.70;;;10.43;;
71558;SDS011;59382;43.852;25.952;2023-12-14T12:20:34;20.30;;;10.15;;
71558;SDS011;59382;43.852;25.952;2023-12-14T12:23:00;26.42;;;10.85;;
71558;SDS011;59382;43.852;25.952;2023-12-14T12:25:26;16.40;;;10.00;;
71558;SDS011;59382;43.852;25.952;2023-12-14T12:27:56;22.40;;;9.85;;
71558;SDS011;59382;43.852;25.952;2023-12-14T12:30:21;19.65;;;10.00;;
71558;SDS011;59382;43.852;25.952;2023-12-14T12:32:48;16.27;;;7.80;;
71558;SDS011;59382;43.852;25.952;2023-12-14T12:35:19;19.88;;;9.68;;
71558;SDS011;59382;43.852;25.952;2023-12-14T12:37:44;16.88;;;8.85;;
71558;SDS011;59382;43.852;25.952;2023-12-14T12:40:10;20.27;;;9.75;;
71558;SDS011;59382;43.852;25.952;2023-12-14T12:42:36;20.73;;;9.68;;
71558;SDS011;59382;43.852;25.952;2023-12-14T12:45:02;21.70;;;9.93;;
71558;SDS011;59382;43.852;25.952;2023-12-14T12:47:29;17.67;;;8.77;;
71558;SDS011;59382;43.852;25.952;2023-12-14T12:49:58;15.50;;;9.00;;
71558;SDS011;59382;43.852;25.952;2023-12-14T12:52:23;18.85;;;9.38;;
71558;SDS011;59382;43.852;25.952;2023-12-14T12:54:49;22.38;;;9.50;;
71558;SDS011;59382;43.852;25.952;2023-12-14T12:57:15;20.27;;;9.55;;
71558;SDS011;59382;43.852;25.952;2023-12-14T12:59:40;20.67;;;9.35;;
71558;SDS011;59382;43.852;25.952;2023-12-14T13:02:07;17.70;;;9.40;;
71558;SDS011;59382;43.852;25.952;2023-12-14T13:04:32;17.17;;;9.38;;
71558;SDS011;59382;43.852;25.952;2023-12-14T13:06:59;18.80;;;10.15;;
71558;SDS011;59382;43.852;25.952;2023-12-14T13:09:29;15.65;;;8.95;;
71558;SDS011;59382;43.852;25.952;2023-12-14T13:11:54;25.35;;;9.80;;
71558;SDS011;59382;43.852;25.952;2023-12-14T13:14:20;26.33;;;9.38;;
71558;SDS011;59382;43.852;25.952;2023-12-14T13:16:46;19.10;;;11.10;;
71558;SDS011;59382;43.852;25.952;2023-12-14T13:19:13;25.73;;;11.48;;
71558;SDS011;59382;43.852;25.952;2023-12-14T13:21:38;22.13;;;11.57;;
71558;SDS011;59382;43.852;25.952;2023-12-14T13:24:04;15.32;;;9.35;;
71558;SDS011;59382;43.852;25.952;2023-12-14T13:26:30;18.25;;;8.85;;
71558;SDS011;59382;43.852;25.952;2023-12-14T13:28:56;20.25;;;10.10;;
71558;SDS011;59382;43.852;25.952;2023-12-14T13:31:21;20.17;;;9.50;;
71558;SDS011;59382;43.852;25.952;2023-12-14T13:33:49;16.17;;;8.85;;
71558;SDS011;59382;43.852;25.952;2023-12-14T13:36:18;18.98;;;9.05;;
71558;SDS011;59382;43.852;25.952;2023-12-14T13:38:44;19.27;;;9.38;;
71558;SDS011;59382;43.852;25.952;2023-12-14T13:41:11;20.58;;;9.85;;
71558;SDS011;59382;43.852;25.952;2023-12-14T13:43:38;12.30;;;6.40;;
71558;SDS011;59382;43.852;25.952;2023-12-14T13:46:04;14.85;;;7.25;;
71558;SDS011;59382;43.852;25.952;2023-12-14T13:48:29;14.52;;;7.43;;
71558;SDS011;59382;43.852;25.952;2023-12-14T13:50:55;13.10;;;7.45;;
71558;SDS011;59382;43.852;25.952;2023-12-14T13:53:21;16.23;;;7.55;;
71558;SDS011;59382;43.852;25.952;2023-12-14T13:55:47;11.07;;;5.85;;
71558;SDS011;59382;43.852;25.952;2023-12-14T13:58:16;14.43;;;7.20;;
71558;SDS011;59382;43.852;25.952;2023-12-14T14:00:43;12.57;;;7.22;;
71558;SDS011;59382;43.852;25.952;2023-12-14T14:03:11;13.40;;;6.18;;
71558;SDS011;59382;43.852;25.952;2023-12-14T14:05:38;13.88;;;7.15;;
71558;SDS011;59382;43.852;25.952;2023-12-14T14:08:04;16.25;;;6.65;;